Tug "trevor" — WCP6921 — position and weather

sailwx.info

Track history (hours):
 
Tides and Currents Weather Stations Pressure Air Temp Water Temp Dewpoint Dewpoint Depression Visibility Wind Speed Wind Dir Waves Ship Positions

Tug "trevor"

Owner: WEEKS MARINE, INC., CRANFORD, NJ. More information available from US FCC via Universal Licensing System and Coast Guard Vessel Documentation Center.

Last reported at 2015-Jul-03 07:34 UTC. Time now 2015-Jul-03 07:55 UTC.
Position N 29°36' W 090°40'.

Length 21 m; draft 2.9 m.

Type: Towing. MMSI: 366643140.

Date/timePositionNaut miles runAvg speedWind from/ knotsBaromVisibWave heightAir tempDewpointWater temp
2015-Jul-03 07:34N 29°36' W 090°40'0 0.0
2015-Jul-03 06:33N 29°36' W 090°40'0 0.0
2015-Jul-03 05:34N 29°36' W 090°40'0 0.0
2015-Jul-03 04:34N 29°36' W 090°40'0 0.0
2015-Jul-03 03:34N 29°36' W 090°40'0 0.0
2015-Jul-03 02:34N 29°36' W 090°40'0 0.0
2015-Jul-03 01:34N 29°36' W 090°40'0 0.0
2015-Jul-03 00:34N 29°36' W 090°40'0 0.0
2015-Jul-02 23:34N 29°36' W 090°40'0 0.1
2015-Jul-02 22:34N 29°36' W 090°40'0 0.1
2015-Jul-02 21:34N 29°36' W 090°40'0 0.0
2015-Jul-02 20:34N 29°36' W 090°40'0 0.1
2015-Jul-02 19:34N 29°36' W 090°40'0 0.0
2015-Jul-02 18:34N 29°36' W 090°40'0 0.0
2015-Jul-02 17:34N 29°36' W 090°40'0 0.0
2015-Jul-02 16:34N 29°36' W 090°40'0 0.0
2015-Jul-02 15:34N 29°36' W 090°40'2 2.4
2015-Jul-02 14:34N 29°36' W 090°43'1 1.3
2015-Jul-02 13:34N 29°35' W 090°43'0 0.0
2015-Jul-02 12:34N 29°35' W 090°43'0 0.0
2015-Jul-02 11:33N 29°35' W 090°43'3 3.1
2015-Jul-02 10:34N 29°36' W 090°40'0 0.0
2015-Jul-02 09:34N 29°36' W 090°40'0 0.0
2015-Jul-02 08:34N 29°36' W 090°40'0 0.0
2015-Jul-02 07:34N 29°36' W 090°40'0 0.0
2015-Jul-02 06:34N 29°36' W 090°40'0 0.0
2015-Jul-02 05:34N 29°36' W 090°40'0 0.0
2015-Jul-02 04:34N 29°36' W 090°40'0 0.0
2015-Jul-02 03:34N 29°36' W 090°40'0 0.0
2015-Jul-02 02:34N 29°36' W 090°40'0 0.0
2015-Jul-02 01:34N 29°36' W 090°40'0 0.0
2015-Jul-02 00:34N 29°36' W 090°40'0 0.0
2015-Jul-01 23:34N 29°36' W 090°40'0 0.1
2015-Jul-01 22:33N 29°36' W 090°40'0 0.1
2015-Jul-01 21:34N 29°36' W 090°40'6 5.8
2015-Jul-01 20:34N 29°33' W 090°45'  
2015-Jun-25 10:15N 29°36' W 090°59'5 7.4
2015-Jun-25 09:34N 29°33' W 090°54'8 7.5
2015-Jun-25 08:34N 29°32' W 090°46'5 4.8
2015-Jun-25 07:34N 29°36' W 090°43'6 6.1
2015-Jun-25 06:33N 29°35' W 090°36'  
Track history (hours):
 
Tides and Currents Weather Stations Pressure Air Temp Water Temp Dewpoint Dewpoint Depression Visibility Wind Speed Wind Dir Waves Ship Positions

Tug "trevor"

Owner: WEEKS MARINE, INC., CRANFORD, NJ. More information available from US FCC via Universal Licensing System and Coast Guard Vessel Documentation Center.

Last reported at 2015-Jul-03 07:34 UTC. Time now 2015-Jul-03 07:55 UTC.
Position N 29°36' W 090°40'.

Length 21 m; draft 2.9 m.

Type: Towing. MMSI: 366643140.

Date/timePositionNaut miles runAvg speedWind from/ knotsBaromVisibWave heightAir tempDewpointWater temp
2015-Jul-03 07:34N 29°36' W 090°40'0 0.0
2015-Jul-03 06:33N 29°36' W 090°40'0 0.0
2015-Jul-03 05:34N 29°36' W 090°40'0 0.0
2015-Jul-03 04:34N 29°36' W 090°40'0 0.0
2015-Jul-03 03:34N 29°36' W 090°40'0 0.0
2015-Jul-03 02:34N 29°36' W 090°40'0 0.0
2015-Jul-03 01:34N 29°36' W 090°40'0 0.0
2015-Jul-03 00:34N 29°36' W 090°40'0 0.0
2015-Jul-02 23:34N 29°36' W 090°40'0 0.1
2015-Jul-02 22:34N 29°36' W 090°40'0 0.1
2015-Jul-02 21:34N 29°36' W 090°40'0 0.0
2015-Jul-02 20:34N 29°36' W 090°40'0 0.1
2015-Jul-02 19:34N 29°36' W 090°40'0 0.0
2015-Jul-02 18:34N 29°36' W 090°40'0 0.0
2015-Jul-02 17:34N 29°36' W 090°40'0 0.0
2015-Jul-02 16:34N 29°36' W 090°40'0 0.0
2015-Jul-02 15:34N 29°36' W 090°40'2 2.4
2015-Jul-02 14:34N 29°36' W 090°43'1 1.3
2015-Jul-02 13:34N 29°35' W 090°43'0 0.0
2015-Jul-02 12:34N 29°35' W 090°43'0 0.0
2015-Jul-02 11:33N 29°35' W 090°43'3 3.1
2015-Jul-02 10:34N 29°36' W 090°40'0 0.0
2015-Jul-02 09:34N 29°36' W 090°40'0 0.0
2015-Jul-02 08:34N 29°36' W 090°40'0 0.0
2015-Jul-02 07:34N 29°36' W 090°40'0 0.0
2015-Jul-02 06:34N 29°36' W 090°40'0 0.0
2015-Jul-02 05:34N 29°36' W 090°40'0 0.0
2015-Jul-02 04:34N 29°36' W 090°40'0 0.0
2015-Jul-02 03:34N 29°36' W 090°40'0 0.0
2015-Jul-02 02:34N 29°36' W 090°40'0 0.0
2015-Jul-02 01:34N 29°36' W 090°40'0 0.0
2015-Jul-02 00:34N 29°36' W 090°40'0 0.0
2015-Jul-01 23:34N 29°36' W 090°40'0 0.1
2015-Jul-01 22:33N 29°36' W 090°40'0 0.1
2015-Jul-01 21:34N 29°36' W 090°40'6 5.8
2015-Jul-01 20:34N 29°33' W 090°45'  
2015-Jun-25 10:15N 29°36' W 090°59'5 7.4
2015-Jun-25 09:34N 29°33' W 090°54'8 7.5
2015-Jun-25 08:34N 29°32' W 090°46'5 4.8
2015-Jun-25 07:34N 29°36' W 090°43'6 6.1
2015-Jun-25 06:33N 29°35' W 090°36'  

Dump ship's entire track history